Terminal Aerodrome Forecast
Issued by NWS Austin/San Antonio, TX

Home | Current Version | Previous Version | Text Only | Print | Product List | Glossary On
Versions: 1 2 3 4 5 6 7 8 9 10 11 12 13 14 15 16 17 18 19 20
000
FTUS44 KEWX 222339
TAFDRT
TAF
KDRT 222339Z 2300/2324 11012KT P6SM SCT030 BKN060
     FM230600 11010KT P6SM VCTS BKN030CB
     FM231000 12010KT 5SM BR OVC010
     FM231700 13015KT P6SM BKN025 BKN120
     FM232300 13012KT P6SM VCTS BKN030CB=

USA.gov is the U.S. government's official web portal to all federal, state and local government web resources and services.